createdAt,value
2022-08-25T00:00:00.322Z,1.29
2022-08-25T00:00:54.307Z,1.60
2022-08-25T00:01:54.295Z,1.70
2022-08-25T00:02:55.937Z,1.70
2022-08-25T00:03:54.274Z,1.60
2022-08-25T00:04:54.264Z,1.60
2022-08-25T00:05:54.388Z,1.50
2022-08-25T00:06:54.244Z,1.79
2022-08-25T00:07:54.238Z,1.20
2022-08-25T00:08:54.225Z,1.60
2022-08-25T00:09:54.211Z,1.50
2022-08-25T00:11:03.112Z,1.60
2022-08-25T00:11:55.434Z,1.60
2022-08-25T00:12:54.190Z,1.70
2022-08-25T00:13:54.173Z,1.50
2022-08-25T00:14:54.163Z,1.60
2022-08-25T00:15:54.194Z,1.79
2022-08-25T00:17:00.163Z,1.60
2022-08-25T00:17:54.134Z,1.79
2022-08-25T00:18:54.121Z,1.50
2022-08-25T00:19:54.110Z,1.50
2022-08-25T00:20:54.098Z,1.70
2022-08-25T00:21:54.291Z,1.60
2022-08-25T00:22:54.081Z,1.70
2022-08-25T00:23:54.071Z,1.90
2022-08-25T00:24:54.061Z,1.60
2022-08-25T00:25:54.046Z,1.60
2022-08-25T00:26:54.035Z,1.60
2022-08-25T00:27:54.026Z,1.50
2022-08-25T00:28:54.206Z,1.50
2022-08-25T00:29:55.047Z,1.60
2022-08-25T00:30:54.070Z,1.60
2022-08-25T00:31:53.986Z,1.79
2022-08-25T00:32:57.151Z,2.09
2022-08-25T00:33:59.978Z,1.79
2022-08-25T00:34:53.956Z,1.60
2022-08-25T00:35:53.945Z,1.50
2022-08-25T00:36:53.938Z,2.00
2022-08-25T00:37:53.924Z,1.60
2022-08-25T00:38:53.909Z,1.60
2022-08-25T00:39:53.944Z,1.70
2022-08-25T00:40:53.889Z,1.70
2022-08-25T00:41:53.883Z,1.70
2022-08-25T00:42:59.875Z,1.60
2022-08-25T00:43:59.864Z,1.70
2022-08-25T00:45:00.634Z,1.90
2022-08-25T00:45:53.884Z,1.70
2022-08-25T00:46:53.824Z,1.70
2022-08-25T00:47:53.816Z,1.90
2022-08-25T00:48:53.809Z,1.60
2022-08-25T00:49:53.791Z,1.70
2022-08-25T00:50:53.787Z,1.60
2022-08-25T00:51:53.774Z,1.79
2022-08-25T00:52:53.763Z,1.70
2022-08-25T00:53:53.750Z,1.90
2022-08-25T00:54:53.744Z,1.79
2022-08-25T00:55:53.729Z,1.79
2022-08-25T00:56:53.718Z,2.00
2022-08-25T00:57:53.916Z,1.90
2022-08-25T00:58:53.705Z,1.90
2022-08-25T00:59:53.689Z,1.79
2022-08-25T01:00:53.879Z,1.90
2022-08-25T01:01:54.084Z,1.90
2022-08-25T01:02:53.764Z,2.09
2022-08-25T01:03:53.848Z,2.00
2022-08-25T01:04:53.638Z,1.90
2022-08-25T01:05:53.627Z,2.00
2022-08-25T01:06:53.615Z,2.00
2022-08-25T01:07:59.662Z,2.00
2022-08-25T01:08:53.596Z,1.90
2022-08-25T01:09:53.588Z,1.79
2022-08-25T01:10:53.573Z,1.79
2022-08-25T01:11:53.562Z,1.90
2022-08-25T01:12:53.556Z,1.60
2022-08-25T01:13:53.558Z,1.90
2022-08-25T01:14:53.538Z,1.70
2022-08-25T01:15:53.551Z,1.70
2022-08-25T01:16:54.051Z,1.70
2022-08-25T01:17:53.505Z,1.79
2022-08-25T01:18:53.496Z,2.00
2022-08-25T01:19:53.483Z,2.00
2022-08-25T01:20:53.467Z,1.70
2022-08-25T01:21:53.459Z,1.70
2022-08-25T01:22:55.420Z,1.79
2022-08-25T01:23:53.438Z,1.79
2022-08-25T01:24:53.428Z,2.09
2022-08-25T01:26:30.177Z,1.70
2022-08-25T01:27:28.145Z,1.90
2022-08-25T01:28:28.131Z,1.90
2022-08-25T01:29:28.120Z,1.79
2022-08-25T01:30:28.113Z,1.79
2022-08-25T01:31:28.172Z,1.79
2022-08-25T01:32:28.090Z,1.70
2022-08-25T01:33:28.080Z,2.09
2022-08-25T01:34:34.077Z,1.70
2022-08-25T01:35:28.060Z,1.70
2022-08-25T01:36:34.053Z,1.90
2022-08-25T01:37:28.043Z,1.70
2022-08-25T01:38:28.025Z,1.70
2022-08-25T01:39:28.018Z,1.70
2022-08-25T01:40:28.120Z,1.50
2022-08-25T01:41:27.992Z,1.60
2022-08-25T01:42:27.982Z,1.60
2022-08-25T01:43:27.973Z,1.60
2022-08-25T01:44:27.959Z,1.79
2022-08-25T01:45:27.952Z,1.70
2022-08-25T01:46:28.020Z,2.00
2022-08-25T01:47:27.928Z,1.70
2022-08-25T01:48:27.923Z,1.79
2022-08-25T01:49:27.908Z,1.70
2022-08-25T01:50:27.894Z,1.79
2022-08-25T01:51:27.884Z,1.79
2022-08-25T01:52:27.874Z,2.20
2022-08-25T01:53:27.862Z,1.90
2022-08-25T01:54:27.893Z,2.09
2022-08-25T01:55:27.841Z,2.20
2022-08-25T01:56:28.031Z,1.90
2022-08-25T01:57:28.020Z,2.00
2022-08-25T01:58:27.812Z,1.90
2022-08-25T01:59:27.804Z,2.29
2022-08-25T02:00:27.802Z,1.90
2022-08-25T02:01:27.900Z,2.00
2022-08-25T02:02:28.051Z,1.79
2022-08-25T02:03:27.752Z,1.90
2022-08-25T02:04:27.745Z,1.79
2022-08-25T02:05:27.739Z,1.90
2022-08-25T02:06:30.070Z,2.09
2022-08-25T02:07:27.721Z,2.09
2022-08-25T02:08:27.905Z,2.20
2022-08-25T02:09:27.694Z,2.40
2022-08-25T02:10:27.681Z,1.90
2022-08-25T02:11:27.669Z,1.90
2022-08-25T02:12:27.657Z,2.09
2022-08-25T02:13:31.391Z,2.20
2022-08-25T02:14:27.837Z,2.20
2022-08-25T02:15:27.629Z,1.90
2022-08-25T02:16:27.678Z,2.09
2022-08-25T02:17:27.617Z,1.79
2022-08-25T02:18:27.597Z,1.79
2022-08-25T02:19:27.580Z,2.20
2022-08-25T02:20:27.569Z,2.29
2022-08-25T02:21:27.558Z,2.09
2022-08-25T02:22:27.552Z,2.09
2022-08-25T02:23:27.537Z,2.09
2022-08-25T02:24:27.532Z,1.79
2022-08-25T02:25:27.515Z,2.20
2022-08-25T02:26:33.527Z,1.90
2022-08-25T02:27:27.491Z,2.20
2022-08-25T02:28:27.493Z,2.20
2022-08-25T02:29:27.477Z,1.90
2022-08-25T02:30:27.547Z,1.90
2022-08-25T02:31:27.863Z,2.00
2022-08-25T02:32:27.534Z,2.00
2022-08-25T02:33:27.430Z,2.40
2022-08-25T02:34:27.419Z,2.00
2022-08-25T02:35:27.411Z,2.00
2022-08-25T02:36:27.402Z,2.09
2022-08-25T02:37:27.386Z,1.79
2022-08-25T02:38:27.377Z,2.20
2022-08-25T02:39:27.365Z,2.00
2022-08-25T02:40:27.407Z,1.90
2022-08-25T02:41:31.000Z,2.00
2022-08-25T02:42:27.336Z,2.09
2022-08-25T02:43:27.320Z,2.20
2022-08-25T02:44:27.314Z,2.20
2022-08-25T02:45:27.304Z,2.00
2022-08-25T02:46:27.375Z,2.20
2022-08-25T02:47:27.368Z,2.00
2022-08-25T02:48:27.267Z,2.09
2022-08-25T02:49:27.254Z,1.90
2022-08-25T02:50:27.248Z,2.20
2022-08-25T02:51:27.236Z,2.29
2022-08-25T02:52:27.232Z,2.40
2022-08-25T02:53:27.215Z,2.20
2022-08-25T02:54:33.210Z,2.20
2022-08-25T02:55:27.190Z,2.29
2022-08-25T02:56:27.187Z,2.00
2022-08-25T02:57:27.172Z,2.20
2022-08-25T02:58:27.169Z,2.09
2022-08-25T02:59:27.150Z,2.09
2022-08-25T03:00:29.243Z,2.29
2022-08-25T03:01:28.706Z,2.09
2022-08-25T03:02:27.316Z,2.09
2022-08-25T03:03:27.110Z,2.09
2022-08-25T03:04:27.105Z,1.79
2022-08-25T03:05:27.085Z,1.90
2022-08-25T03:06:27.071Z,1.90
2022-08-25T03:07:27.265Z,2.20
2022-08-25T03:08:27.053Z,2.20
2022-08-25T03:09:27.042Z,2.00
2022-08-25T03:10:27.029Z,2.20
2022-08-25T03:11:27.022Z,2.00
2022-08-25T03:12:27.010Z,2.09
2022-08-25T03:13:27.003Z,2.09
2022-08-25T03:14:27.188Z,1.90
2022-08-25T03:15:26.982Z,2.00
2022-08-25T03:16:27.923Z,1.90
2022-08-25T03:17:26.960Z,2.09
2022-08-25T03:18:26.999Z,1.90
2022-08-25T03:19:27.135Z,2.00
2022-08-25T03:20:26.937Z,2.09
2022-08-25T03:21:26.954Z,2.00
2022-08-25T03:22:26.922Z,2.29
2022-08-25T03:23:26.892Z,2.00
2022-08-25T03:24:26.900Z,2.00
2022-08-25T03:25:26.866Z,2.40
2022-08-25T03:26:26.861Z,2.20
2022-08-25T03:27:26.851Z,1.90
2022-08-25T03:28:30.158Z,2.00
2022-08-25T03:29:28.881Z,2.00
2022-08-25T03:30:26.819Z,2.20
2022-08-25T03:31:26.910Z,2.00
2022-08-25T03:32:26.800Z,2.09
2022-08-25T03:33:26.782Z,2.20
2022-08-25T03:34:26.772Z,2.09
2022-08-25T03:35:26.977Z,2.09
2022-08-25T03:36:26.752Z,2.50
2022-08-25T03:37:26.743Z,2.50
2022-08-25T03:38:26.733Z,1.90
2022-08-25T03:39:26.722Z,2.09
2022-08-25T03:40:26.856Z,2.09
2022-08-25T03:41:28.032Z,2.20
2022-08-25T03:42:26.717Z,2.00
2022-08-25T03:43:26.678Z,2.20
2022-08-25T03:44:26.662Z,2.00
2022-08-25T03:45:26.724Z,2.09
2022-08-25T03:46:26.647Z,2.09
2022-08-25T03:47:32.640Z,2.20
2022-08-25T03:48:26.622Z,1.90
2022-08-25T03:49:26.613Z,2.29
2022-08-25T03:50:26.605Z,2.20
2022-08-25T03:51:26.589Z,2.09
2022-08-25T03:52:26.584Z,1.90
2022-08-25T03:53:26.570Z,2.00
2022-08-25T03:54:26.557Z,2.09
2022-08-25T03:55:26.545Z,2.20
2022-08-25T03:56:26.607Z,2.20
2022-08-25T03:57:26.525Z,2.09
2022-08-25T03:58:26.521Z,2.29
2022-08-25T03:59:26.502Z,2.20
2022-08-25T04:00:26.491Z,2.09
2022-08-25T04:01:26.963Z,2.29
2022-08-25T04:02:26.547Z,2.20
2022-08-25T04:03:26.465Z,2.20
2022-08-25T04:04:26.455Z,2.29
2022-08-25T04:05:26.757Z,2.09
2022-08-25T04:06:26.436Z,1.90
2022-08-25T04:07:26.366Z,2.29
2022-08-25T04:08:26.373Z,2.50
2022-08-25T04:09:26.347Z,2.00
2022-08-25T04:10:26.338Z,2.20
2022-08-25T04:11:26.383Z,2.70
2022-08-25T04:12:26.332Z,2.29
2022-08-25T04:13:26.302Z,2.59
2022-08-25T04:14:32.296Z,2.20
2022-08-25T04:15:28.108Z,2.09
2022-08-25T04:16:26.340Z,2.59
2022-08-25T04:17:26.262Z,2.20
2022-08-25T04:18:26.448Z,2.00
2022-08-25T04:19:26.236Z,2.00
2022-08-25T04:20:26.237Z,2.50
2022-08-25T04:21:26.219Z,2.20
2022-08-25T04:22:26.205Z,2.40
2022-08-25T04:23:26.195Z,2.29
2022-08-25T04:24:26.185Z,2.50
2022-08-25T04:25:26.170Z,2.40
2022-08-25T04:26:26.163Z,2.29
2022-08-25T04:27:26.149Z,2.20
2022-08-25T04:28:26.146Z,2.09
2022-08-25T04:29:26.127Z,2.29
2022-08-25T04:30:26.127Z,2.40
2022-08-25T04:31:26.176Z,2.40
2022-08-25T04:32:26.099Z,2.29
2022-08-25T04:33:26.094Z,2.20
2022-08-25T04:34:30.444Z,2.20
2022-08-25T04:35:26.064Z,2.20
2022-08-25T04:36:32.062Z,2.40
2022-08-25T04:37:26.043Z,2.50
2022-08-25T04:38:26.032Z,2.40
2022-08-25T04:39:26.022Z,2.29
2022-08-25T04:40:29.008Z,2.29
2022-08-25T04:41:26.003Z,2.40
2022-08-25T04:42:26.000Z,2.50
2022-08-25T04:43:25.984Z,2.50
2022-08-25T04:44:25.971Z,2.59
2022-08-25T04:45:26.080Z,2.20
2022-08-25T04:46:31.955Z,2.59
2022-08-25T04:47:31.949Z,2.50
2022-08-25T04:48:25.927Z,2.59
2022-08-25T04:49:25.915Z,2.79
2022-08-25T04:50:25.907Z,2.59
2022-08-25T04:51:25.896Z,2.70
2022-08-25T04:52:25.882Z,2.40
2022-08-25T04:53:25.871Z,2.40
2022-08-25T04:54:25.860Z,2.50
2022-08-25T04:55:25.851Z,2.40
2022-08-25T04:56:25.841Z,2.50
2022-08-25T04:57:25.828Z,2.59
2022-08-25T04:58:25.826Z,2.29
2022-08-25T04:59:29.502Z,2.70
2022-08-25T05:00:25.798Z,2.50
2022-08-25T05:01:25.872Z,2.59
2022-08-25T05:02:25.776Z,2.70
2022-08-25T05:03:25.762Z,2.50
2022-08-25T05:04:28.483Z,3.09
2022-08-25T05:05:25.755Z,2.29
2022-08-25T05:06:31.750Z,2.70
2022-08-25T05:07:25.722Z,2.50
2022-08-25T05:08:25.714Z,2.70
2022-08-25T05:09:32.028Z,2.59
2022-08-25T05:10:31.698Z,2.40
2022-08-25T05:11:25.682Z,2.50
2022-08-25T05:12:25.675Z,2.40
2022-08-25T05:13:27.922Z,2.59
2022-08-25T05:14:26.543Z,2.70
2022-08-25T05:15:25.642Z,2.79
2022-08-25T05:16:25.672Z,2.20
2022-08-25T05:17:25.621Z,2.70
2022-08-25T05:18:25.608Z,2.20
2022-08-25T05:19:25.597Z,2.20
2022-08-25T05:20:25.581Z,2.50
2022-08-25T05:21:25.577Z,2.20
2022-08-25T05:22:25.573Z,2.09
2022-08-25T05:23:25.552Z,2.20
2022-08-25T05:24:25.538Z,2.20
2022-08-25T05:25:25.528Z,2.40
2022-08-25T05:26:25.517Z,2.29
2022-08-25T05:27:25.505Z,2.59
2022-08-25T05:28:25.495Z,2.59
2022-08-25T05:29:25.487Z,2.59
2022-08-25T05:30:25.475Z,2.50
2022-08-25T05:31:25.514Z,2.40
2022-08-25T05:32:25.456Z,2.59
2022-08-25T05:33:25.440Z,2.90
2022-08-25T05:34:25.435Z,2.29
2022-08-25T05:35:25.427Z,2.40
2022-08-25T05:36:25.408Z,2.09
2022-08-25T05:37:25.398Z,2.50
2022-08-25T05:38:25.516Z,2.20
2022-08-25T05:39:26.825Z,2.20
2022-08-25T05:40:25.436Z,2.79
2022-08-25T05:41:25.357Z,2.50
2022-08-25T05:42:25.351Z,2.59
2022-08-25T05:43:25.341Z,2.09
2022-08-25T05:44:25.325Z,2.00
2022-08-25T05:45:25.386Z,2.09
2022-08-25T05:46:25.310Z,2.09
2022-08-25T05:47:25.716Z,2.20
2022-08-25T05:48:25.286Z,2.00
2022-08-25T05:49:27.273Z,2.40
2022-08-25T05:50:25.261Z,2.29
2022-08-25T05:51:25.250Z,2.20
2022-08-25T05:52:25.240Z,2.29
2022-08-25T05:53:25.235Z,2.09
2022-08-25T05:54:25.218Z,2.29
2022-08-25T05:55:25.222Z,2.09
2022-08-25T05:56:25.201Z,2.09
2022-08-25T05:57:25.192Z,1.90
2022-08-25T05:58:25.174Z,2.09
2022-08-25T05:59:25.168Z,2.20
2022-08-25T06:00:25.151Z,1.79
2022-08-25T06:01:25.232Z,2.00
2022-08-25T06:02:25.130Z,2.29
2022-08-25T06:03:25.170Z,2.09
2022-08-25T06:04:25.107Z,1.90
2022-08-25T06:05:25.106Z,2.00
2022-08-25T06:06:25.086Z,1.79
2022-08-25T06:07:25.084Z,1.90
2022-08-25T06:08:25.063Z,1.79
2022-08-25T06:09:25.057Z,1.70
2022-08-25T06:10:25.043Z,1.90
2022-08-25T06:11:25.035Z,1.79
2022-08-25T06:12:25.025Z,1.90
2022-08-25T06:13:27.010Z,2.00
2022-08-25T06:14:25.201Z,1.79
2022-08-25T06:15:30.995Z,2.00
2022-08-25T06:16:25.058Z,2.09
2022-08-25T06:17:24.972Z,1.90
2022-08-25T06:18:25.159Z,1.70
2022-08-25T06:19:30.956Z,2.00
2022-08-25T06:20:25.472Z,1.79
2022-08-25T06:21:24.930Z,1.70
2022-08-25T06:22:25.118Z,2.00
2022-08-25T06:23:30.915Z,1.70
2022-08-25T06:24:24.894Z,1.70
2022-08-25T06:25:24.885Z,1.79
2022-08-25T06:26:24.877Z,1.79
2022-08-25T06:27:24.866Z,1.50
2022-08-25T06:28:24.850Z,1.79
2022-08-25T06:29:24.847Z,1.90
2022-08-25T06:30:28.647Z,1.60
2022-08-25T06:31:24.845Z,1.79
2022-08-25T06:32:24.826Z,1.70
2022-08-25T06:33:24.794Z,1.90
2022-08-25T06:34:24.788Z,1.79
2022-08-25T06:35:24.814Z,1.79
2022-08-25T06:36:24.767Z,1.79
2022-08-25T06:37:25.390Z,1.70
2022-08-25T06:38:24.752Z,1.79
2022-08-25T06:39:24.737Z,1.70
2022-08-25T06:40:24.898Z,2.09
2022-08-25T06:41:24.712Z,1.60
2022-08-25T06:42:26.700Z,1.70
2022-08-25T06:43:24.687Z,1.60
2022-08-25T06:44:24.682Z,1.79
2022-08-25T06:45:24.666Z,1.50
2022-08-25T06:46:35.651Z,1.60
2022-08-25T06:47:25.777Z,1.79
2022-08-25T06:48:24.632Z,1.70
2022-08-25T06:49:24.625Z,1.79
2022-08-25T06:50:24.747Z,1.70
2022-08-25T06:51:24.605Z,1.60
2022-08-25T06:52:29.164Z,1.60
2022-08-25T06:53:24.589Z,1.70
2022-08-25T06:54:24.780Z,1.70
2022-08-25T06:55:24.558Z,1.50
2022-08-25T06:56:24.549Z,1.60
2022-08-25T06:57:24.744Z,1.60
2022-08-25T06:58:24.531Z,1.60
2022-08-25T06:59:24.517Z,1.60
2022-08-25T07:00:30.516Z,1.50
2022-08-25T07:01:25.971Z,1.79
2022-08-25T07:02:24.601Z,1.39
2022-08-25T07:04:24.468Z,1.60
2022-08-25T07:05:33.603Z,1.79
2022-08-25T07:06:25.493Z,1.79
2022-08-25T07:07:24.435Z,1.50
2022-08-25T07:08:24.422Z,1.70
2022-08-25T07:09:24.413Z,1.50
2022-08-25T07:10:24.449Z,2.09
2022-08-25T07:11:24.401Z,1.70
2022-08-25T07:12:24.582Z,1.70
2022-08-25T07:13:24.373Z,1.70
2022-08-25T07:14:24.367Z,1.50
2022-08-25T07:15:24.351Z,1.79
2022-08-25T07:16:29.587Z,1.70
2022-08-25T07:17:26.326Z,1.60
2022-08-25T07:18:24.318Z,1.50
2022-08-25T07:19:24.310Z,1.50
2022-08-25T07:20:30.360Z,1.50
2022-08-25T07:21:25.346Z,1.60
2022-08-25T07:22:24.281Z,1.60
2022-08-25T07:23:24.273Z,1.60
2022-08-25T07:24:24.259Z,1.50
2022-08-25T07:25:24.246Z,1.70
2022-08-25T07:26:37.374Z,1.79
2022-08-25T07:27:25.270Z,1.70
2022-08-25T07:28:24.214Z,1.39
2022-08-25T07:29:32.051Z,1.70
2022-08-25T07:30:25.224Z,1.70
2022-08-25T07:31:29.403Z,1.79
2022-08-25T07:32:24.171Z,1.50
2022-08-25T07:33:24.164Z,1.60
2022-08-25T07:34:24.151Z,1.60
2022-08-25T07:35:24.292Z,1.60
2022-08-25T07:36:24.143Z,1.60
2022-08-25T07:37:47.680Z,1.50
2022-08-25T07:38:25.152Z,1.60
2022-08-25T07:39:24.308Z,1.60
2022-08-25T07:40:24.322Z,1.90
2022-08-25T07:41:24.084Z,1.60
2022-08-25T07:42:24.072Z,1.50
2022-08-25T07:43:24.058Z,1.70
2022-08-25T07:44:24.048Z,1.60
2022-08-25T07:45:24.040Z,1.50
2022-08-25T07:46:30.092Z,1.50
2022-08-25T07:47:24.016Z,1.39
2022-08-25T07:48:24.006Z,1.60
2022-08-25T07:49:23.994Z,1.60
2022-08-25T07:50:24.040Z,1.39
2022-08-25T07:51:24.051Z,1.50
2022-08-25T07:52:23.969Z,1.60
2022-08-25T07:53:23.956Z,1.39
2022-08-25T07:54:23.955Z,1.50
2022-08-25T07:55:24.974Z,1.20
2022-08-25T07:56:29.932Z,1.20
2022-08-25T07:57:23.931Z,1.20
2022-08-25T07:58:23.905Z,1.29
2022-08-25T07:59:29.906Z,1.50
2022-08-25T08:00:24.423Z,1.39
2022-08-25T08:01:23.963Z,1.50
2022-08-25T08:02:24.789Z,1.29
2022-08-25T08:03:44.602Z,1.39
2022-08-25T08:04:24.887Z,1.50
2022-08-25T08:05:24.187Z,1.39
2022-08-25T08:06:24.038Z,1.39
2022-08-25T08:07:23.848Z,1.29
2022-08-25T08:08:24.847Z,1.60
2022-08-25T08:09:23.994Z,1.39
2022-08-25T08:11:23.973Z,1.50
2022-08-25T08:12:23.774Z,1.39
2022-08-25T08:13:23.765Z,1.50
2022-08-25T08:14:23.744Z,1.29
2022-08-25T08:15:23.742Z,1.50
2022-08-25T08:16:29.842Z,2.00
2022-08-25T08:17:23.717Z,1.20
2022-08-25T08:18:23.705Z,1.70
2022-08-25T08:19:23.897Z,1.39
2022-08-25T08:20:23.977Z,1.50
2022-08-25T08:21:23.698Z,1.50
2022-08-25T08:22:23.681Z,1.50
2022-08-25T08:23:23.658Z,1.60
2022-08-25T08:24:40.640Z,1.60
2022-08-25T08:25:27.409Z,1.60
2022-08-25T08:26:36.361Z,1.39
2022-08-25T08:27:24.662Z,1.60
2022-08-25T08:28:23.617Z,1.60
2022-08-25T08:29:23.597Z,1.60
2022-08-25T08:30:25.849Z,1.39
2022-08-25T08:31:23.696Z,1.50
2022-08-25T08:32:36.768Z,1.50
2022-08-25T08:33:24.594Z,1.29
2022-08-25T08:34:29.774Z,1.50
2022-08-25T08:35:23.551Z,1.60
2022-08-25T08:36:29.546Z,1.70
2022-08-25T08:37:23.592Z,1.70
2022-08-25T08:38:29.522Z,1.70
2022-08-25T08:39:23.508Z,1.60
2022-08-25T08:40:24.718Z,1.70
2022-08-25T08:41:23.628Z,1.70
2022-08-25T08:42:29.487Z,1.60
2022-08-25T08:43:23.466Z,1.60
2022-08-25T08:44:23.456Z,1.50
2022-08-25T08:45:23.456Z,1.90
2022-08-25T08:46:26.159Z,1.70
2022-08-25T08:47:23.435Z,2.00
2022-08-25T08:49:06.175Z,1.60
2022-08-25T08:50:06.161Z,1.70
2022-08-25T08:51:06.787Z,1.60
2022-08-25T08:52:06.131Z,1.79
2022-08-25T08:53:06.585Z,1.60
2022-08-25T08:54:15.054Z,1.79
2022-08-25T08:55:07.141Z,1.90
2022-08-25T08:56:06.097Z,2.00
2022-08-25T08:57:06.091Z,1.79
2022-08-25T08:58:06.273Z,1.70
2022-08-25T08:59:06.603Z,1.79
2022-08-25T09:00:06.061Z,1.70
2022-08-25T09:01:12.092Z,1.79
2022-08-25T09:02:06.168Z,1.79
2022-08-25T09:03:07.095Z,1.60
2022-08-25T09:04:06.031Z,1.79
2022-08-25T09:05:06.059Z,1.60
2022-08-25T09:06:06.941Z,1.70
2022-08-25T09:07:06.203Z,1.79
2022-08-25T09:08:06.200Z,1.60
2022-08-25T09:09:06.804Z,1.79
2022-08-25T09:10:05.976Z,1.90
2022-08-25T09:11:05.964Z,1.70
2022-08-25T09:12:11.960Z,1.39
2022-08-25T09:13:11.976Z,1.79
2022-08-25T09:14:05.942Z,1.79
2022-08-25T09:15:12.541Z,1.90
2022-08-25T09:16:05.972Z,1.90
2022-08-25T09:17:05.909Z,1.79
2022-08-25T09:18:05.965Z,1.90
2022-08-25T09:19:05.902Z,1.90
2022-08-25T09:20:05.890Z,1.70
2022-08-25T09:21:07.168Z,1.79
2022-08-25T09:22:33.628Z,1.60
2022-08-25T09:23:06.904Z,1.90
2022-08-25T09:24:05.872Z,1.79
2022-08-25T09:25:08.630Z,1.79
2022-08-25T09:26:05.838Z,1.90
2022-08-25T09:27:05.831Z,2.00
2022-08-25T09:28:06.071Z,1.79
2022-08-25T09:29:16.312Z,1.70
2022-08-25T09:30:07.051Z,1.79
2022-08-25T09:31:05.864Z,2.00
2022-08-25T09:32:05.992Z,1.79
2022-08-25T09:33:05.801Z,1.90
2022-08-25T09:34:05.772Z,2.09
2022-08-25T09:35:11.982Z,1.90
2022-08-25T09:36:05.991Z,2.00
2022-08-25T09:37:05.755Z,1.79
2022-08-25T09:38:05.929Z,1.79
2022-08-25T09:39:07.794Z,1.79
2022-08-25T09:40:11.795Z,1.79
2022-08-25T09:41:05.718Z,1.70
2022-08-25T09:42:05.911Z,1.60
2022-08-25T09:43:05.699Z,1.90
2022-08-25T09:44:05.697Z,1.90
2022-08-25T09:45:05.686Z,1.90
2022-08-25T09:46:05.763Z,1.60
2022-08-25T09:47:05.669Z,1.70
2022-08-25T09:48:05.828Z,1.60
2022-08-25T09:49:05.664Z,1.70
2022-08-25T09:50:05.778Z,1.90
2022-08-25T09:51:11.640Z,1.70
2022-08-25T09:52:05.632Z,1.70
2022-08-25T09:53:17.228Z,2.00
2022-08-25T09:54:12.653Z,1.70
2022-08-25T09:55:05.603Z,1.90
2022-08-25T09:56:05.597Z,1.79
2022-08-25T09:57:05.589Z,1.79
2022-08-25T09:58:11.586Z,1.79
2022-08-25T09:59:05.568Z,1.70
2022-08-25T10:00:06.657Z,1.60
2022-08-25T10:01:07.594Z,1.50
2022-08-25T10:02:11.554Z,1.70
2022-08-25T10:03:06.292Z,1.79
2022-08-25T10:04:05.819Z,1.70
2022-08-25T10:05:05.561Z,2.00
2022-08-25T10:06:05.514Z,1.79
2022-08-25T10:07:05.513Z,1.70
2022-08-25T10:08:11.544Z,2.00
2022-08-25T10:09:05.886Z,1.70
2022-08-25T10:10:11.500Z,1.90
2022-08-25T10:11:11.488Z,1.90
2022-08-25T10:12:05.470Z,1.70
2022-08-25T10:14:26.915Z,1.70
2022-08-25T10:15:30.277Z,1.70
2022-08-25T10:16:32.160Z,1.79
2022-08-25T10:17:29.592Z,1.79
2022-08-25T10:18:26.876Z,1.90
2022-08-25T10:19:26.871Z,1.90
2022-08-25T10:20:26.867Z,2.09
2022-08-25T10:21:26.859Z,1.70
2022-08-25T10:22:27.051Z,1.79
2022-08-25T10:23:27.047Z,2.00
2022-08-25T10:24:26.835Z,1.79
2022-08-25T10:25:26.827Z,2.00
2022-08-25T10:26:27.025Z,2.00
2022-08-25T10:27:28.716Z,1.79
2022-08-25T10:28:27.007Z,1.90
2022-08-25T10:29:26.795Z,1.79
2022-08-25T10:30:26.794Z,2.20
2022-08-25T10:31:26.809Z,1.90
2022-08-25T10:32:32.779Z,1.79
2022-08-25T10:33:26.762Z,2.00
2022-08-25T10:34:26.757Z,2.09
2022-08-25T10:35:26.749Z,2.20
2022-08-25T10:36:32.959Z,2.00
2022-08-25T10:37:26.754Z,1.79
2022-08-25T10:38:28.754Z,1.79
2022-08-25T10:39:36.776Z,1.90
2022-08-25T10:40:28.043Z,2.00
2022-08-25T10:41:27.112Z,2.00
2022-08-25T10:43:09.461Z,1.60
2022-08-25T10:44:10.884Z,1.70
2022-08-25T10:45:11.433Z,1.79
2022-08-25T10:46:09.703Z,1.60
2022-08-25T10:47:09.424Z,1.90
2022-08-25T10:48:09.412Z,2.00
2022-08-25T10:49:09.405Z,1.90
2022-08-25T10:50:09.400Z,1.90
2022-08-25T10:51:09.408Z,1.90
2022-08-25T10:52:09.382Z,1.60
2022-08-25T10:53:09.377Z,1.79
2022-08-25T10:54:09.576Z,2.09
2022-08-25T10:55:09.972Z,1.90
2022-08-25T10:56:15.369Z,1.79
2022-08-25T10:57:09.355Z,1.70
2022-08-25T10:58:09.345Z,1.79
2022-08-25T10:59:15.351Z,1.79
2022-08-25T11:00:09.537Z,1.90
2022-08-25T11:01:09.455Z,1.70
2022-08-25T11:02:15.332Z,1.90
2022-08-25T11:03:09.452Z,1.90
2022-08-25T11:04:09.368Z,1.79
2022-08-25T11:05:11.364Z,1.79
2022-08-25T11:06:15.715Z,2.00
2022-08-25T11:07:09.296Z,1.90
2022-08-25T11:08:15.301Z,1.70
2022-08-25T11:09:09.284Z,1.60
2022-08-25T11:10:09.486Z,1.70
2022-08-25T11:11:09.270Z,1.70
2022-08-25T11:12:09.273Z,1.70
2022-08-25T11:13:11.234Z,1.79
2022-08-25T11:14:15.265Z,1.70
2022-08-25T11:15:09.245Z,1.79
2022-08-25T11:16:19.107Z,2.00
2022-08-25T11:17:16.887Z,1.50
2022-08-25T11:18:14.761Z,1.79
2022-08-25T11:19:15.288Z,1.90
2022-08-25T11:20:09.423Z,2.00
2022-08-25T11:21:09.617Z,1.90
2022-08-25T11:22:09.202Z,1.70
2022-08-25T11:23:09.198Z,1.70
2022-08-25T11:24:09.196Z,1.70
2022-08-25T11:25:09.604Z,1.70
2022-08-25T11:26:09.185Z,1.70
2022-08-25T11:27:09.382Z,1.60
2022-08-25T11:28:09.170Z,1.70
2022-08-25T11:29:11.519Z,1.50
2022-08-25T11:30:09.235Z,1.60
2022-08-25T11:31:09.235Z,1.39
2022-08-25T11:32:15.156Z,1.50
2022-08-25T11:33:09.349Z,1.50
2022-08-25T11:34:09.140Z,1.60
2022-08-25T11:35:43.827Z,1.60
2022-08-25T11:36:43.815Z,1.50
2022-08-25T11:37:43.809Z,1.70
2022-08-25T11:38:47.950Z,1.60
2022-08-25T11:39:49.859Z,2.50
2022-08-25T11:40:50.077Z,1.70
2022-08-25T11:41:50.004Z,1.60
2022-08-25T11:42:49.796Z,1.50
2022-08-25T11:43:43.895Z,1.60
2022-08-25T11:44:45.625Z,1.60
2022-08-25T11:45:46.055Z,1.50
2022-08-25T11:46:43.971Z,1.50
2022-08-25T11:47:43.965Z,1.50
2022-08-25T11:48:43.759Z,1.79
2022-08-25T11:49:44.170Z,1.70
2022-08-25T11:50:44.790Z,1.50
2022-08-25T11:51:43.954Z,1.39
2022-08-25T11:52:43.741Z,1.50
2022-08-25T11:53:49.759Z,1.50
2022-08-25T11:54:43.945Z,1.50
2022-08-25T11:56:26.538Z,1.39
2022-08-25T11:57:26.521Z,1.50
2022-08-25T11:58:26.928Z,1.50
2022-08-25T11:59:26.729Z,1.60
2022-08-25T12:00:29.129Z,1.39
2022-08-25T12:01:32.517Z,1.50
2022-08-25T12:03:05.209Z,1.39
2022-08-25T12:04:05.247Z,1.39
2022-08-25T12:05:11.407Z,1.60
2022-08-25T12:06:50.147Z,1.60
2022-08-25T12:07:43.921Z,1.60
2022-08-25T12:08:43.919Z,1.60
2022-08-25T12:09:49.917Z,1.39
2022-08-25T12:10:44.106Z,1.39
2022-08-25T12:11:49.919Z,1.50
2022-08-25T12:12:43.909Z,1.39
2022-08-25T12:13:44.101Z,1.50
2022-08-25T12:14:43.892Z,1.39
2022-08-25T12:15:43.883Z,1.29
2022-08-25T12:16:43.950Z,1.29
2022-08-25T12:17:44.074Z,1.20
2022-08-25T12:18:45.542Z,1.39
2022-08-25T12:20:22.771Z,1.10
2022-08-25T12:22:17.737Z,1.10
2022-08-25T12:23:17.533Z,1.10
2022-08-25T12:24:17.519Z,1.39
2022-08-25T12:25:17.586Z,1.10
2022-08-25T12:26:23.525Z,1.29
2022-08-25T12:27:17.712Z,1.29
2022-08-25T12:28:17.509Z,1.20
2022-08-25T12:30:08.299Z,1.10
2022-08-25T12:31:42.946Z,1.20
2022-08-25T12:32:49.153Z,1.10
2022-08-25T12:33:42.928Z,1.20
2022-08-25T12:34:49.347Z,1.29
2022-08-25T12:35:42.925Z,1.00
2022-08-25T12:36:44.979Z,1.00
2022-08-25T12:37:42.923Z,1.10
2022-08-25T12:38:44.728Z,1.20
2022-08-25T12:39:43.115Z,1.20
2022-08-25T12:40:42.902Z,1.20
2022-08-25T12:41:42.903Z,1.00
2022-08-25T12:42:42.896Z,1.00
2022-08-25T12:43:48.902Z,1.10
2022-08-25T12:44:42.892Z,0.90
2022-08-25T12:45:49.151Z,0.90
2022-08-25T12:46:42.884Z,0.70
2022-08-25T12:47:44.789Z,1.00
2022-08-25T12:48:42.880Z,1.10
2022-08-25T12:49:45.078Z,1.00
2022-08-25T12:50:43.221Z,1.00
2022-08-25T12:51:48.580Z,0.90
2022-08-25T12:52:42.863Z,0.90
2022-08-25T12:53:42.858Z,1.00
2022-08-25T12:54:43.259Z,1.00
2022-08-25T12:55:42.854Z,0.90
2022-08-25T12:56:43.050Z,0.90
2022-08-25T12:57:43.060Z,1.00
2022-08-25T12:58:58.855Z,1.10
2022-08-25T12:59:48.794Z,1.00
2022-08-25T13:00:42.840Z,1.20
2022-08-25T13:01:45.174Z,1.00
2022-08-25T13:02:45.084Z,1.10
2022-08-25T13:03:49.908Z,1.10
2022-08-25T13:04:43.022Z,1.20
2022-08-25T13:05:43.020Z,0.90
2022-08-25T13:06:42.811Z,0.90
2022-08-25T13:07:43.019Z,0.80
2022-08-25T13:08:46.997Z,1.10
2022-08-25T13:09:42.805Z,1.00
2022-08-25T13:10:42.801Z,0.90
2022-08-25T13:11:42.999Z,1.00
2022-08-25T13:12:43.199Z,0.90
2022-08-25T13:13:42.991Z,1.10
2022-08-25T13:14:44.025Z,1.00
2022-08-25T13:15:44.420Z,0.90
2022-08-25T13:16:42.796Z,1.29
2022-08-25T13:17:42.777Z,0.80
2022-08-25T13:18:51.587Z,0.90
2022-08-25T13:19:42.772Z,0.80
2022-08-25T13:20:43.990Z,1.00
2022-08-25T13:21:42.969Z,0.80
2022-08-25T13:23:50.761Z,1.00
2022-08-25T13:24:42.771Z,0.80
2022-08-25T13:25:42.748Z,0.90
2022-08-25T13:26:48.122Z,1.00
2022-08-25T13:27:44.745Z,0.90
2022-08-25T13:28:42.737Z,1.29
2022-08-25T13:29:44.734Z,1.00